createdAt,value
2019-05-19T00:00:50.691Z,101683.42
2019-05-19T00:03:20.957Z,101680.64
2019-05-19T00:08:45.951Z,101679.62
2019-05-19T00:11:15.428Z,101677.02
2019-05-19T00:13:44.823Z,101675.21
2019-05-19T00:16:14.491Z,101674.73
2019-05-19T00:22:01.101Z,101678.27
2019-05-19T00:25:09.915Z,101674.84
2019-05-19T00:28:19.026Z,101678.34
2019-05-19T00:34:13.133Z,101670.25
2019-05-19T00:36:42.837Z,101662.78
2019-05-19T00:39:12.658Z,101661.77
2019-05-19T00:42:21.844Z,101668.65
2019-05-19T00:44:51.399Z,101673.94
2019-05-19T00:47:23.160Z,101678.10
2019-05-19T00:55:24.192Z,101669.94
2019-05-19T01:03:47.144Z,101670.77
2019-05-19T01:06:16.490Z,101660.50
2019-05-19T01:08:46.095Z,101659.53
2019-05-19T01:11:15.512Z,101656.89
2019-05-19T01:13:45.041Z,101655.02
2019-05-19T01:16:14.879Z,101654.36
2019-05-19T01:18:44.297Z,101659.56
2019-05-19T01:21:53.179Z,101663.88
2019-05-19T01:25:02.029Z,101663.56
2019-05-19T01:30:46.840Z,101673.77
2019-05-19T01:33:17.172Z,101673.05
2019-05-19T01:38:42.721Z,101671.31
2019-05-19T01:44:21.915Z,101662.17
2019-05-19T01:47:30.781Z,101660.13
2019-05-19T01:50:40.167Z,101666.88
2019-05-19T01:56:36.600Z,101662.86
2019-05-19T02:02:01.532Z,101667.48
2019-05-19T02:05:10.853Z,101660.20
2019-05-19T02:07:40.711Z,101662.52
2019-05-19T02:13:18.788Z,101655.98
2019-05-19T02:15:49.510Z,101653.62
2019-05-19T02:18:19.344Z,101658.45
2019-05-19T02:21:28.339Z,101651.49
2019-05-19T02:23:58.315Z,101656.83
2019-05-19T02:26:27.802Z,101649.38
2019-05-19T02:28:58.830Z,101642.00
2019-05-19T02:31:28.754Z,101648.98
2019-05-19T02:36:54.456Z,101641.25
2019-05-19T02:39:23.825Z,101641.95
2019-05-19T02:45:29.642Z,101638.44
2019-05-19T03:03:18.859Z,101646.27
2019-05-19T03:05:48.267Z,101647.52
2019-05-19T03:08:18.044Z,101640.84
2019-05-19T03:11:26.734Z,101640.91
2019-05-19T03:13:56.148Z,101643.06
2019-05-19T03:17:04.959Z,101654.69
2019-05-19T03:19:34.352Z,101660.31
2019-05-19T03:24:59.546Z,101652.19
2019-05-19T03:30:50.264Z,101657.58
2019-05-19T03:36:13.060Z,101647.29
2019-05-19T03:38:42.468Z,101642.35
2019-05-19T03:44:07.804Z,101638.38
2019-05-19T03:46:37.365Z,101634.05
2019-05-19T03:49:46.442Z,101630.19
2019-05-19T03:55:18.120Z,101622.25
2019-05-19T03:57:47.886Z,101624.77
2019-05-19T04:00:56.597Z,101616.37
2019-05-19T04:06:28.015Z,101623.75
2019-05-19T04:09:36.684Z,101620.11
2019-05-19T04:12:06.680Z,101622.66
2019-05-19T04:14:36.091Z,101625.61
2019-05-19T04:17:05.467Z,101622.64
2019-05-19T04:22:31.425Z,101623.27
2019-05-19T04:25:01.325Z,101612.02
2019-05-19T04:30:26.783Z,101615.72
2019-05-19T04:32:56.289Z,101618.39
2019-05-19T04:38:21.807Z,101621.16
2019-05-19T04:40:51.429Z,101622.30
2019-05-19T04:43:20.848Z,101618.16
2019-05-19T04:45:50.756Z,101612.30
2019-05-19T04:48:20.118Z,101614.94
2019-05-19T04:50:49.558Z,101604.66
2019-05-19T04:53:19.067Z,101595.34
2019-05-19T04:55:48.577Z,101599.61
2019-05-19T04:58:18.329Z,101508.58
2019-05-19T05:01:27.014Z,101599.34
2019-05-19T05:03:57.341Z,101602.65
2019-05-19T05:07:05.987Z,101610.19
2019-05-19T05:09:35.986Z,101606.25
2019-05-19T05:12:44.688Z,101613.50
2019-05-19T05:18:15.917Z,101607.02
2019-05-19T05:20:45.449Z,101606.45
2019-05-19T05:23:56.877Z,101603.70
2019-05-19T05:26:27.229Z,101606.74
2019-05-19T05:29:35.963Z,101601.52
2019-05-19T05:35:20.687Z,101593.77
2019-05-19T05:37:50.400Z,101600.67
2019-05-19T05:43:13.798Z,101589.95
2019-05-19T05:48:38.425Z,101591.28
2019-05-19T05:51:07.946Z,101592.61
2019-05-19T05:53:37.441Z,101587.77
2019-05-19T05:56:07.354Z,101585.48
2019-05-19T06:02:25.184Z,101588.39
2019-05-19T06:04:54.642Z,101585.16
2019-05-19T06:07:24.227Z,101582.70
2019-05-19T06:12:48.907Z,101586.63
2019-05-19T06:18:27.219Z,101576.34
2019-05-19T06:21:35.996Z,101575.66
2019-05-19T06:24:44.915Z,101579.64
2019-05-19T06:27:14.761Z,101585.00
2019-05-19T06:29:44.203Z,101585.27
2019-05-19T06:32:32.519Z,101583.70
2019-05-19T06:35:02.295Z,101582.81
2019-05-19T06:37:33.494Z,101583.15
2019-05-19T06:40:42.360Z,101585.09
2019-05-19T06:43:12.218Z,101579.66
2019-05-19T06:45:41.695Z,101581.23
2019-05-19T06:48:11.317Z,101576.70
2019-05-19T06:50:43.075Z,101582.77
2019-05-19T06:56:08.569Z,101578.12
2019-05-19T06:59:17.423Z,101582.34
2019-05-19T07:02:27.298Z,101576.37
2019-05-19T07:07:36.197Z,101579.01
2019-05-19T07:13:54.396Z,101566.16
2019-05-19T07:16:23.940Z,101566.03
2019-05-19T07:22:28.674Z,101561.23
2019-05-19T07:28:00.881Z,101560.06
2019-05-19T07:36:35.045Z,101554.92
2019-05-19T07:42:14.194Z,101556.44
2019-05-19T07:44:45.410Z,101546.64
2019-05-19T07:50:16.923Z,101542.38
2019-05-19T07:52:47.109Z,101542.73
2019-05-19T07:55:16.512Z,101552.81
2019-05-19T07:57:46.056Z,101550.89
2019-05-19T08:06:31.692Z,101545.23
2019-05-19T08:12:10.519Z,101544.08
2019-05-19T08:14:39.903Z,101544.68
2019-05-19T08:17:09.336Z,101545.43
2019-05-19T08:20:19.197Z,101548.19
2019-05-19T08:25:52.087Z,101545.91
2019-05-19T08:28:21.697Z,101540.04
2019-05-19T08:31:30.802Z,101529.17
2019-05-19T08:34:02.181Z,101536.28
2019-05-19T08:39:35.106Z,101530.03
2019-05-19T08:45:13.256Z,101524.58
2019-05-19T08:47:42.747Z,101521.52
2019-05-19T08:53:13.781Z,101518.39
2019-05-19T08:56:22.441Z,101527.69
2019-05-19T08:58:51.938Z,101516.35
2019-05-19T09:01:21.437Z,101515.94
2019-05-19T09:04:30.260Z,101519.62
2019-05-19T09:07:11.268Z,101511.50
2019-05-19T09:10:20.250Z,101510.79
2019-05-19T09:15:45.305Z,101503.66
2019-05-19T09:18:53.973Z,101513.12
2019-05-19T09:27:24.163Z,101503.92
2019-05-19T09:29:53.591Z,101505.05
2019-05-19T09:32:22.997Z,101512.73
2019-05-19T09:34:52.431Z,101502.88
2019-05-19T09:37:21.797Z,101499.44
2019-05-19T09:39:51.171Z,101503.44
2019-05-19T09:42:20.795Z,101509.76
2019-05-19T09:44:50.328Z,101503.24
2019-05-19T09:47:21.689Z,101505.94
2019-05-19T09:50:30.409Z,101490.83
2019-05-19T09:53:01.009Z,101495.55
2019-05-19T09:56:09.671Z,101496.45
2019-05-19T09:58:39.059Z,101495.48
2019-05-19T10:01:08.794Z,101498.53
2019-05-19T10:03:38.397Z,101488.36
2019-05-19T10:10:01.343Z,101489.49
2019-05-19T10:18:42.042Z,101484.84
2019-05-19T10:21:50.958Z,101487.51
2019-05-19T10:25:20.243Z,101485.97
2019-05-19T10:30:46.133Z,101478.32
2019-05-19T10:33:15.525Z,101477.00
2019-05-19T10:35:44.998Z,101472.22
2019-05-19T10:38:34.927Z,101471.74
2019-05-19T10:41:04.755Z,101464.20
2019-05-19T10:43:36.113Z,101458.78
2019-05-19T10:46:44.990Z,101458.77
2019-05-19T10:52:23.325Z,101458.62
2019-05-19T10:54:52.929Z,101459.42
2019-05-19T10:58:01.634Z,101463.34
2019-05-19T11:00:50.246Z,101464.70
2019-05-19T11:03:19.806Z,101465.73
2019-05-19T11:05:49.638Z,101466.19
2019-05-19T11:14:35.747Z,101467.22
2019-05-19T11:23:07.610Z,101471.72
2019-05-19T11:25:50.694Z,101462.03
2019-05-19T11:28:08.246Z,101463.00
2019-05-19T11:31:17.081Z,101469.52
2019-05-19T11:36:48.007Z,101463.89
2019-05-19T11:39:17.514Z,101463.31
2019-05-19T11:42:06.062Z,101456.11
2019-05-19T11:47:44.806Z,101475.69
2019-05-19T11:50:33.333Z,101465.77
2019-05-19T11:55:38.322Z,101470.83
2019-05-19T11:58:08.273Z,101466.97
2019-05-19T12:01:17.066Z,101467.34
2019-05-19T12:03:46.554Z,101468.29
2019-05-19T12:06:16.103Z,101474.91
2019-05-19T12:08:45.650Z,101459.14
2019-05-19T12:11:54.362Z,101458.39
2019-05-19T12:14:24.116Z,101465.92
2019-05-19T12:17:13.872Z,101462.74
2019-05-19T12:19:55.021Z,101460.45
2019-05-19T12:25:26.152Z,101470.53
2019-05-19T12:31:44.408Z,101463.92
2019-05-19T12:34:32.952Z,101467.55
2019-05-19T12:37:03.555Z,101464.59
2019-05-19T12:42:47.165Z,101462.58
2019-05-19T12:45:56.067Z,101478.04
2019-05-19T12:49:05.180Z,101457.80
2019-05-19T12:54:14.201Z,101461.08
2019-05-19T12:57:04.723Z,101462.65
2019-05-19T12:59:34.159Z,101457.34
2019-05-19T13:05:18.464Z,101452.48
2019-05-19T13:07:48.069Z,101447.69
2019-05-19T13:10:57.400Z,101447.39
2019-05-19T13:13:27.643Z,101444.95
2019-05-19T13:15:56.984Z,101438.66
2019-05-19T13:19:05.957Z,101443.85
2019-05-19T13:21:47.648Z,101437.25
2019-05-19T13:24:17.235Z,101425.46
2019-05-19T13:30:01.939Z,101429.02
2019-05-19T13:32:32.259Z,101427.87
2019-05-19T13:35:01.688Z,101433.23
2019-05-19T13:37:31.171Z,101426.16
2019-05-19T13:40:00.624Z,101421.16
2019-05-19T13:42:30.025Z,101433.48
2019-05-19T13:45:00.010Z,101429.77
2019-05-19T13:48:08.812Z,101434.67
2019-05-19T13:50:38.409Z,101431.41
2019-05-19T13:56:22.230Z,101427.55
2019-05-19T13:59:11.078Z,101424.13
2019-05-19T14:04:36.090Z,101431.90
2019-05-19T14:07:06.866Z,101433.70
2019-05-19T14:09:36.225Z,101427.73
2019-05-19T14:15:04.283Z,101427.38
2019-05-19T14:17:33.570Z,101428.77
2019-05-19T14:20:03.238Z,101426.29
2019-05-19T14:22:32.713Z,101420.20
2019-05-19T14:25:02.073Z,101428.53
2019-05-19T14:27:31.576Z,101424.64
2019-05-19T14:30:01.084Z,101421.73
2019-05-19T14:32:30.418Z,101429.82
2019-05-19T14:34:59.867Z,101421.58
2019-05-19T14:37:29.310Z,101425.12
2019-05-19T14:39:58.689Z,101425.50
2019-05-19T14:42:47.124Z,101426.61
2019-05-19T14:51:32.862Z,101426.47
2019-05-19T14:54:03.882Z,101422.63
2019-05-19T15:00:08.170Z,101423.95
2019-05-19T15:02:37.677Z,101424.58
2019-05-19T15:05:46.641Z,101414.80
2019-05-19T15:11:24.915Z,101406.10
2019-05-19T15:14:13.513Z,101399.27
2019-05-19T15:16:42.938Z,101401.80
2019-05-19T15:19:12.518Z,101398.19
2019-05-19T15:21:42.037Z,101389.56
2019-05-19T15:24:23.507Z,101402.01
2019-05-19T15:29:55.017Z,101392.64
2019-05-19T15:32:24.491Z,101387.91
2019-05-19T15:38:28.713Z,101395.39
2019-05-19T15:44:12.100Z,101394.58
2019-05-19T15:47:20.968Z,101401.55
2019-05-19T15:49:52.159Z,101395.03
2019-05-19T15:55:35.924Z,101393.98
2019-05-19T16:01:33.578Z,101397.52
2019-05-19T16:04:03.017Z,101395.33
2019-05-19T16:07:11.690Z,101393.69
2019-05-19T16:13:01.201Z,101407.63
2019-05-19T16:15:30.751Z,101395.66
2019-05-19T16:21:35.400Z,101397.73
2019-05-19T16:27:31.104Z,101389.42
2019-05-19T16:30:12.204Z,101387.83
2019-05-19T16:35:36.570Z,101382.55
2019-05-19T16:38:45.399Z,101387.97
2019-05-19T16:41:14.844Z,101384.12
2019-05-19T16:43:44.263Z,101388.02
2019-05-19T16:46:52.987Z,101385.65
2019-05-19T16:49:22.391Z,101379.06
2019-05-19T17:00:50.035Z,101384.12
2019-05-19T17:03:19.957Z,101381.38
2019-05-19T17:05:50.075Z,101379.42
2019-05-19T17:11:34.347Z,101382.70
2019-05-19T17:23:20.610Z,101380.06
2019-05-19T17:25:50.019Z,101380.23
2019-05-19T17:31:21.065Z,101379.71
2019-05-19T17:36:51.803Z,101365.30
2019-05-19T17:39:21.354Z,101365.41
2019-05-19T17:41:50.772Z,101369.71
2019-05-19T17:44:20.790Z,101372.12
2019-05-19T17:53:08.339Z,101390.30
2019-05-19T17:56:17.456Z,101374.73
2019-05-19T17:59:26.294Z,101371.42
2019-05-19T18:05:21.569Z,101379.28
2019-05-19T18:11:05.750Z,101382.64
2019-05-19T18:13:35.550Z,101384.16
2019-05-19T18:16:05.033Z,101384.91
2019-05-19T18:18:34.648Z,101383.86
2019-05-19T18:21:04.642Z,101384.19
2019-05-19T18:24:13.515Z,101391.29
2019-05-19T18:26:42.992Z,101390.59
2019-05-19T18:29:12.514Z,101397.69
2019-05-19T18:31:42.038Z,101392.55
2019-05-19T18:34:23.002Z,101395.34
2019-05-19T18:37:32.874Z,101393.61
2019-05-19T18:42:41.373Z,101390.68
2019-05-19T18:45:50.267Z,101390.31
2019-05-19T18:51:50.670Z,101389.68
2019-05-19T18:54:59.805Z,101314.25
2019-05-19T18:57:48.916Z,101394.06
2019-05-19T19:00:59.842Z,101393.58
2019-05-19T19:03:29.472Z,101397.02
2019-05-19T19:05:59.034Z,101392.03
2019-05-19T19:08:28.565Z,101401.18
2019-05-19T19:10:58.009Z,101397.39
2019-05-19T19:13:46.462Z,101400.28
2019-05-19T19:19:24.652Z,101406.84
2019-05-19T19:21:54.529Z,101411.12
2019-05-19T19:24:42.944Z,101410.58
2019-05-19T19:36:28.262Z,101413.93
2019-05-19T19:42:18.050Z,101422.72
2019-05-19T19:56:48.073Z,101426.45
2019-05-19T19:59:57.036Z,101420.77
2019-05-19T20:03:05.725Z,101425.62
2019-05-19T20:08:49.600Z,101429.31
2019-05-19T20:11:19.206Z,101428.22
2019-05-19T20:17:22.930Z,101433.92
2019-05-19T20:23:17.546Z,101440.73
2019-05-19T20:25:46.911Z,101446.17
2019-05-19T20:31:44.654Z,101450.03
2019-05-19T20:37:21.175Z,101452.97
2019-05-19T20:45:52.639Z,101440.28
2019-05-19T20:48:22.538Z,101447.48
2019-05-19T20:51:31.258Z,101443.37
2019-05-19T20:54:00.897Z,101448.34
2019-05-19T20:57:09.703Z,101454.86
2019-05-19T20:59:39.197Z,101454.83
2019-05-19T21:02:08.579Z,101449.41
2019-05-19T21:04:38.048Z,101454.26
2019-05-19T21:07:07.987Z,101467.00
2019-05-19T21:10:16.725Z,101468.34
2019-05-19T21:12:46.240Z,101471.83
2019-05-19T21:15:55.015Z,101489.41
2019-05-19T21:21:38.777Z,101496.70
2019-05-19T21:24:47.449Z,101493.28
2019-05-19T21:27:18.035Z,101492.81
2019-05-19T21:29:47.448Z,101495.09
2019-05-19T21:32:17.008Z,101498.13
2019-05-19T21:34:46.641Z,101497.48
2019-05-19T21:37:16.179Z,101484.42
2019-05-19T21:39:45.681Z,101496.03
2019-05-19T21:42:54.390Z,101490.22
2019-05-19T21:45:24.013Z,101495.67
2019-05-19T21:47:53.618Z,101493.76
2019-05-19T21:50:23.282Z,101487.20
2019-05-19T21:52:52.959Z,101490.13
2019-05-19T21:55:24.294Z,101493.14
2019-05-19T21:57:53.842Z,101485.53
2019-05-19T22:06:49.505Z,101483.23
2019-05-19T22:12:09.304Z,101470.20
2019-05-19T22:14:38.884Z,101467.88
2019-05-19T22:17:08.477Z,101463.07
2019-05-19T22:20:17.316Z,101465.59
2019-05-19T22:22:46.982Z,101454.70
2019-05-19T22:25:17.349Z,101440.53
2019-05-19T22:31:00.601Z,101442.94
2019-05-19T22:33:30.026Z,101444.53
2019-05-19T22:41:49.888Z,101457.40
2019-05-19T22:44:20.314Z,101466.12
2019-05-19T22:46:50.879Z,101468.80
2019-05-19T22:52:29.323Z,101458.67
2019-05-19T22:54:58.840Z,101456.97
2019-05-19T22:57:28.222Z,101454.90
2019-05-19T22:59:57.773Z,101449.47
2019-05-19T23:05:41.820Z,101429.27
2019-05-19T23:08:50.512Z,101422.27
2019-05-19T23:11:59.261Z,101422.86
2019-05-19T23:14:28.620Z,101422.14
2019-05-19T23:16:57.998Z,101420.45
2019-05-19T23:19:27.437Z,101431.20
2019-05-19T23:21:56.951Z,101431.12
2019-05-19T23:24:26.416Z,101432.22
2019-05-19T23:26:55.907Z,101436.81
2019-05-19T23:29:25.286Z,101436.86
2019-05-19T23:32:06.207Z,101428.39
2019-05-19T23:34:26.069Z,101433.94
2019-05-19T23:37:15.842Z,101439.38
2019-05-19T23:39:45.351Z,101437.94
2019-05-19T23:42:54.054Z,101434.31
2019-05-19T23:48:18.689Z,101433.81
2019-05-19T23:50:48.053Z,101431.64
2019-05-19T23:53:56.755Z,101430.16
2019-05-19T23:56:26.271Z,101427.01
2019-05-19T23:59:35.050Z,101429.78
